Time;durP1;ratioP1;P1;durP2;ratioP2;P2;SDS_P1;SDS_P2;PMS_P1;PMS_P2;Temp;Humidity;BMP_temperature;BMP_pressure;BME280_temperature;BME280_humidity;BME280_pressure;Samples;Min_cycle;Max_cycle;Signal;HPM_P1;HPM_P2
2023/12/15 00:00:52;;;;;;;37.40;19.60;;;;;;;0.41;100.00;101402.60;105129;1257;74022;-60
2023/12/15 00:03:40;;;;;;;35.20;18.80;;;;;;;0.42;100.00;101406.92;105145;1257;82200;-60
2023/12/15 00:06:08;;;;;;;32.30;18.00;;;;;;;0.40;100.00;101408.27;105138;1256;71799;-60
2023/12/15 00:08:37;;;;;;;35.60;18.20;;;;;;;0.41;100.00;101405.54;105142;1260;69225;-60
2023/12/15 00:11:05;;;;;;;33.50;18.40;;;;;;;0.42;100.00;101408.47;105100;1260;69225;-60
2023/12/15 00:13:33;;;;;;;31.60;17.60;;;;;;;0.38;100.00;101409.27;105119;1260;75160;-60
2023/12/15 00:16:02;;;;;;;31.80;17.50;;;;;;;0.36;100.00;101411.09;105138;1260;80545;-60
2023/12/15 00:18:30;;;;;;;32.00;18.80;;;;;;;0.33;100.00;101413.96;105176;1260;72855;-60
2023/12/15 00:20:58;;;;;;;33.50;18.10;;;;;;;0.32;100.00;101412.39;105181;1258;69154;-59
2023/12/15 00:23:26;;;;;;;37.00;19.40;;;;;;;0.32;100.00;101410.14;105117;1256;69199;-60
2023/12/15 00:25:54;;;;;;;35.70;18.70;;;;;;;0.30;100.00;101418.55;105141;1256;74813;-60
2023/12/15 00:28:23;;;;;;;33.10;18.50;;;;;;;0.30;100.00;101427.99;105147;1260;81557;-60
2023/12/15 00:30:51;;;;;;;37.80;19.00;;;;;;;0.28;100.00;101436.55;105154;1258;73136;-60
2023/12/15 00:33:19;;;;;;;35.70;18.40;;;;;;;0.25;100.00;101436.98;105155;1258;69132;-60
2023/12/15 00:35:48;;;;;;;31.90;17.10;;;;;;;0.24;100.00;101449.52;105184;1260;69231;-59
2023/12/15 00:38:17;;;;;;;33.10;17.90;;;;;;;0.24;100.00;101451.23;105227;1256;73513;-59
2023/12/15 00:40:45;;;;;;;31.90;17.50;;;;;;;0.21;100.00;101455.82;105169;1260;82118;-59
2023/12/15 00:43:14;;;;;;;33.70;17.50;;;;;;;0.19;100.00;101461.98;105102;1256;72046;-60
2023/12/15 00:45:42;;;;;;;31.00;16.50;;;;;;;0.17;100.00;101470.50;105173;1260;69186;-59
2023/12/15 00:48:10;;;;;;;32.70;18.00;;;;;;;0.15;100.00;101472.52;105104;1256;69193;-60
2023/12/15 00:50:38;;;;;;;33.10;18.50;;;;;;;0.12;100.00;101475.23;105157;1256;73546;-60
2023/12/15 00:53:07;;;;;;;32.60;17.00;;;;;;;0.11;100.00;101475.89;105176;1261;81439;-60
2023/12/15 00:55:35;;;;;;;33.20;18.40;;;;;;;0.13;100.00;101482.45;105133;1256;70323;-59
2023/12/15 00:58:04;;;;;;;32.00;18.60;;;;;;;0.11;100.00;101489.45;105130;1259;69102;-60
2023/12/15 01:00:32;;;;;;;29.40;17.50;;;;;;;0.10;100.00;101492.52;105120;1260;69206;-60
2023/12/15 01:03:00;;;;;;;30.90;18.10;;;;;;;0.09;100.00;101499.89;105176;1257;74170;-59
2023/12/15 01:05:29;;;;;;;35.30;19.00;;;;;;;0.07;100.00;101502.77;105193;1260;81929;-60
2023/12/15 01:07:57;;;;;;;32.80;17.80;;;;;;;0.05;100.00;101506.52;105147;1256;72396;-60
2023/12/15 01:10:26;;;;;;;31.10;17.70;;;;;;;0.04;100.00;101511.63;105176;1257;69122;-60
2023/12/15 01:12:54;;;;;;;31.10;18.20;;;;;;;0.03;100.00;101512.82;105127;1256;69196;-60
2023/12/15 01:15:22;;;;;;;37.20;18.40;;;;;;;0.04;100.00;101519.71;105131;1256;72737;-60
2023/12/15 01:17:50;;;;;;;32.00;18.70;;;;;;;0.05;100.00;101524.89;105127;1259;81285;-60
2023/12/15 01:20:24;;;;;;;32.40;18.70;;;;;;;0.05;100.00;101529.17;105144;1257;72102;-60
2023/12/15 01:22:52;;;;;;;36.90;18.00;;;;;;;0.04;100.00;101527.10;105144;1258;69175;-60
2023/12/15 01:25:21;;;;;;;35.40;20.00;;;;;;;0.05;100.00;101529.35;105128;1257;69289;-60
2023/12/15 01:27:49;;;;;;;34.00;18.50;;;;;;;0.05;100.00;101531.23;105122;1256;74281;-60
2023/12/15 01:30:17;;;;;;;34.50;19.10;;;;;;;0.05;100.00;101531.92;105163;1257;81352;-60
2023/12/15 01:32:45;;;;;;;34.10;19.20;;;;;;;0.04;100.00;101534.81;105133;1256;72184;-60
2023/12/15 01:35:14;;;;;;;38.00;19.30;;;;;;;0.03;100.00;101538.27;105161;1257;69143;-60
2023/12/15 01:37:42;;;;;;;35.00;19.40;;;;;;;0.03;100.00;101539.79;105229;1260;69186;-60
2023/12/15 01:40:11;;;;;;;34.30;19.00;;;;;;;0.02;100.00;101542.52;105144;1257;73941;-60
2023/12/15 01:42:39;;;;;;;35.10;19.10;;;;;;;0.04;100.00;101543.75;105129;1260;81826;-60
2023/12/15 01:45:08;;;;;;;35.70;19.40;;;;;;;0.05;100.00;101551.35;105124;1257;71551;-60
2023/12/15 01:47:36;;;;;;;31.70;18.10;;;;;;;0.04;100.00;101557.52;105191;1256;69187;-61
2023/12/15 01:50:08;;;;;;;33.40;17.90;;;;;;;0.03;100.00;101558.52;105209;1257;69205;-60
2023/12/15 01:52:37;;;;;;;33.60;18.70;;;;;;;0.03;100.00;101560.42;105146;1260;73595;-60
2023/12/15 01:55:05;;;;;;;34.50;18.70;;;;;;;0.04;100.00;101563.86;105145;1260;82065;-60
2023/12/15 01:57:33;;;;;;;33.50;18.50;;;;;;;0.03;100.00;101566.77;105150;1261;72006;-60
2023/12/15 02:00:09;;;;;;;31.60;17.70;;;;;;;0.02;100.00;101573.63;105112;1256;69118;-60
2023/12/15 02:02:40;;;;;;;30.20;17.80;;;;;;;0.03;100.00;101574.13;105107;1260;69863;-60
2023/12/15 02:05:08;;;;;;;28.50;18.40;;;;;;;0.04;100.00;101572.11;105219;1257;74946;-60
2023/12/15 02:07:37;;;;;;;33.00;18.00;;;;;;;0.06;100.00;101571.13;105119;1260;81499;-60
2023/12/15 02:10:06;;;;;;;35.20;18.10;;;;;;;0.05;100.00;101572.14;105206;1256;70257;-60
2023/12/15 02:12:34;;;;;;;27.80;16.20;;;;;;;0.05;100.00;101570.60;105174;1256;69140;-60
2023/12/15 02:15:03;;;;;;;29.80;16.60;;;;;;;0.05;100.00;101563.90;105134;1260;69199;-60
2023/12/15 02:17:31;;;;;;;27.70;15.50;;;;;;;0.03;100.00;101565.03;105239;1256;73944;-60
2023/12/15 02:19:59;;;;;;;23.90;14.10;;;;;;;0.01;100.00;101567.58;105078;1261;81318;-60
2023/12/15 02:22:28;;;;;;;29.30;16.00;;;;;;;0.01;100.00;101566.21;105176;1256;73159;-60
2023/12/15 02:24:56;;;;;;;28.50;15.70;;;;;;;0.02;100.00;101568.80;105117;1256;69173;-60
2023/12/15 02:27:24;;;;;;;42.70;22.20;;;;;;;0.01;100.00;101564.48;105124;1256;69249;-60
2023/12/15 02:29:52;;;;;;;34.90;18.40;;;;;;;-0.03;100.00;101567.14;105168;1256;73682;-60
2023/12/15 02:32:20;;;;;;;32.80;17.20;;;;;;;-0.06;100.00;101566.89;105121;1261;81613;-60
2023/12/15 02:34:49;;;;;;;35.50;19.30;;;;;;;-0.07;100.00;101569.27;105119;1257;71556;-60
2023/12/15 02:37:17;;;;;;;30.70;18.00;;;;;;;-0.07;100.00;101571.85;105165;1256;69132;-60
2023/12/15 02:39:45;;;;;;;29.50;16.30;;;;;;;-0.07;100.00;101571.50;105134;1257;69201;-60
2023/12/15 02:42:13;;;;;;;29.80;16.70;;;;;;;-0.07;100.00;101574.25;105145;1256;74164;-60
2023/12/15 02:44:45;;;;;;;29.50;16.60;;;;;;;-0.08;100.00;101577.16;105131;1260;80091;-60
2023/12/15 02:47:13;;;;;;;28.20;16.10;;;;;;;-0.08;100.00;101579.72;105139;1256;70941;-60
2023/12/15 02:49:41;;;;;;;30.90;16.40;;;;;;;-0.10;100.00;101582.42;105123;1258;69268;-60
2023/12/15 02:52:09;;;;;;;27.20;15.40;;;;;;;-0.10;100.00;101586.55;105134;1256;69199;-60
2023/12/15 02:54:38;;;;;;;27.70;15.30;;;;;;;-0.11;100.00;101587.20;105154;1256;74225;-60
2023/12/15 02:57:06;;;;;;;28.10;16.20;;;;;;;-0.12;100.00;101588.39;105110;1260;81869;-60
2023/12/15 02:59:34;;;;;;;32.10;16.50;;;;;;;-0.11;100.00;101598.19;105118;1257;71893;-60
2023/12/15 03:02:02;;;;;;;30.00;16.00;;;;;;;-0.10;100.00;101603.89;105145;1256;69167;-60
2023/12/15 03:04:31;;;;;;;28.20;15.20;;;;;;;-0.13;100.00;101612.42;105143;1260;69202;-60
2023/12/15 03:06:59;;;;;;;32.70;16.70;;;;;;;-0.15;100.00;101619.23;105134;1256;73933;-60
2023/12/15 03:09:27;;;;;;;28.00;15.80;;;;;;;-0.16;100.00;101618.70;105141;1260;81900;-60
2023/12/15 03:11:56;;;;;;;28.00;16.10;;;;;;;-0.16;100.00;101618.86;105115;1260;71382;-60
2023/12/15 03:14:24;;;;;;;30.30;16.60;;;;;;;-0.16;100.00;101625.05;105097;1257;69160;-60
2023/12/15 03:16:52;;;;;;;29.90;16.40;;;;;;;-0.15;100.00;101629.88;105119;1256;69179;-60
2023/12/15 03:19:21;;;;;;;26.90;16.20;;;;;;;-0.15;100.00;101633.66;105229;1256;75013;-60
2023/12/15 03:21:49;;;;;;;29.20;16.10;;;;;;;-0.15;100.00;101634.34;105129;1260;81138;-60
2023/12/15 03:24:17;;;;;;;33.70;17.20;;;;;;;-0.15;100.00;101637.61;105193;1256;70469;-59
2023/12/15 03:26:45;;;;;;;27.90;15.10;;;;;;;-0.14;100.00;101642.09;105130;1260;69168;-60
2023/12/15 03:29:14;;;;;;;27.00;16.10;;;;;;;-0.14;100.00;101645.36;105124;1260;69229;-60
2023/12/15 03:31:42;;;;;;;27.90;16.70;;;;;;;-0.14;100.00;101651.70;105182;1256;74593;-60
2023/12/15 03:34:10;;;;;;;29.70;17.90;;;;;;;-0.14;100.00;101651.54;105168;1256;81191;-60
2023/12/15 03:36:38;;;;;;;25.80;15.10;;;;;;;-0.14;100.00;101654.83;105088;1260;73889;-60
2023/12/15 03:39:08;;;;;;;26.30;14.50;;;;;;;-0.15;100.00;101660.48;105198;1260;69131;-60
2023/12/15 03:41:36;;;;;;;25.50;15.00;;;;;;;-0.15;100.00;101661.83;105210;1260;69202;-60
2023/12/15 03:44:04;;;;;;;23.50;15.00;;;;;;;-0.15;100.00;101664.75;105174;1256;74171;-60
2023/12/15 03:46:33;;;;;;;24.90;15.00;;;;;;;-0.14;100.00;101667.88;105126;1260;81813;-60
2023/12/15 03:49:01;;;;;;;28.70;15.60;;;;;;;-0.11;100.00;101670.02;105224;1257;72099;-60
2023/12/15 03:51:29;;;;;;;29.90;16.60;;;;;;;-0.09;100.00;101677.11;105090;1257;69106;-60
2023/12/15 03:53:57;;;;;;;27.10;16.00;;;;;;;-0.08;100.00;101676.98;105086;1260;69170;-60
2023/12/15 03:56:26;;;;;;;29.90;16.50;;;;;;;-0.05;100.00;101678.95;105135;1256;73708;-60
2023/12/15 03:58:54;;;;;;;26.20;15.10;;;;;;;-0.05;100.00;101685.48;105214;1257;80125;-60
2023/12/15 04:01:23;;;;;;;25.00;14.70;;;;;;;-0.05;100.00;101688.21;105176;1258;72046;-60
2023/12/15 04:03:51;;;;;;;27.40;15.50;;;;;;;-0.07;100.00;101688.17;105134;1260;69215;-60
2023/12/15 04:06:19;;;;;;;25.80;15.90;;;;;;;-0.05;100.00;101691.30;105137;1258;69203;-60
2023/12/15 04:08:47;;;;;;;26.30;15.60;;;;;;;-0.02;100.00;101692.44;105193;1256;73824;-60
2023/12/15 04:11:16;;;;;;;30.00;16.50;;;;;;;0.00;100.00;101699.02;105144;1257;80803;-60
2023/12/15 04:13:45;;;;;;;27.90;16.20;;;;;;;0.04;100.00;101704.44;105178;1257;72136;-60
2023/12/15 04:16:13;;;;;;;26.20;15.50;;;;;;;0.08;100.00;101707.31;105216;1260;69244;-60
2023/12/15 04:18:42;;;;;;;25.00;15.00;;;;;;;0.11;100.00;101710.63;105144;1260;69288;-60
2023/12/15 04:21:10;;;;;;;26.20;15.20;;;;;;;0.13;100.00;101717.92;105225;1256;74917;-60
2023/12/15 04:23:38;;;;;;;27.00;15.20;;;;;;;0.15;100.00;101717.98;105150;1260;81871;-60
2023/12/15 04:26:07;;;;;;;22.10;14.40;;;;;;;0.18;100.00;101716.14;105108;1260;70833;-60
2023/12/15 04:28:35;;;;;;;25.00;15.20;;;;;;;0.18;100.00;101720.98;105213;1260;69214;-60
2023/12/15 04:31:04;;;;;;;24.00;13.30;;;;;;;0.17;100.00;101727.30;105118;1261;69284;-60
2023/12/15 04:33:33;;;;;;;26.80;14.70;;;;;;;0.16;100.00;101728.13;105198;1257;74272;-60
2023/12/15 04:36:01;;;;;;;24.30;14.10;;;;;;;0.18;100.00;101737.33;105195;1260;81835;-60
2023/12/15 04:38:29;;;;;;;27.40;16.00;;;;;;;0.18;100.00;101738.35;105127;1256;71657;-60
2023/12/15 04:40:57;;;;;;;23.70;14.90;;;;;;;0.18;100.00;101738.69;105168;1257;69119;-60
2023/12/15 04:43:26;;;;;;;30.70;17.90;;;;;;;0.18;100.00;101745.74;105065;1257;69190;-60
2023/12/15 04:45:55;;;;;;;30.20;16.00;;;;;;;0.21;100.00;101751.30;105157;1261;74154;-60
2023/12/15 04:48:23;;;;;;;24.30;14.90;;;;;;;0.22;100.00;101753.58;105146;1261;81165;-60
2023/12/15 04:50:52;;;;;;;25.80;15.40;;;;;;;0.23;100.00;101755.84;105174;1256;71361;-60
2023/12/15 04:53:20;;;;;;;26.90;15.60;;;;;;;0.23;100.00;101751.52;105184;1261;69199;-60
2023/12/15 04:55:49;;;;;;;28.60;15.60;;;;;;;0.23;100.00;101752.55;105196;1260;69180;-60
2023/12/15 04:58:17;;;;;;;28.40;17.00;;;;;;;0.23;100.00;101757.90;105119;1256;73645;-60
2023/12/15 05:00:45;;;;;;;27.50;15.80;;;;;;;0.23;100.00;101759.61;105147;1261;82832;-60
2023/12/15 05:03:14;;;;;;;25.70;15.50;;;;;;;0.21;100.00;101766.79;105137;1257;72112;-60
2023/12/15 05:05:46;;;;;;;28.30;17.60;;;;;;;0.21;100.00;101769.37;105145;1256;69167;-60
2023/12/15 05:08:14;;;;;;;26.30;16.30;;;;;;;0.21;100.00;101772.45;105153;1257;69166;-60
2023/12/15 05:10:42;;;;;;;26.00;14.50;;;;;;;0.21;100.00;101774.17;105150;1261;73871;-60
2023/12/15 05:13:11;;;;;;;25.30;14.50;;;;;;;0.21;100.00;101776.76;105129;1260;81943;-60
2023/12/15 05:15:39;;;;;;;24.80;14.40;;;;;;;0.22;100.00;101776.77;105115;1256;71617;-60
2023/12/15 05:18:07;;;;;;;24.90;15.10;;;;;;;0.21;100.00;101775.72;105150;1260;69120;-60
2023/12/15 05:20:38;;;;;;;22.90;13.50;;;;;;;0.22;100.00;101771.43;105149;1261;69218;-60
2023/12/15 05:23:08;;;;;;;22.10;12.90;;;;;;;0.21;100.00;101770.23;105195;1256;74191;-60
2023/12/15 05:25:36;;;;;;;23.60;13.40;;;;;;;0.23;100.00;101769.41;105168;1257;81440;-59
2023/12/15 05:28:05;;;;;;;23.20;13.10;;;;;;;0.24;100.00;101768.91;105113;1257;70652;-60
2023/12/15 05:30:33;;;;;;;23.90;13.60;;;;;;;0.23;100.00;101769.92;105094;1256;69104;-60
2023/12/15 05:33:01;;;;;;;22.40;13.20;;;;;;;0.25;100.00;101772.21;105131;1256;69241;-60
2023/12/15 05:35:30;;;;;;;23.50;14.10;;;;;;;0.29;100.00;101774.54;105172;1256;74954;-60
2023/12/15 05:37:58;;;;;;;20.70;12.10;;;;;;;0.30;100.00;101779.39;105156;1261;81695;-60
2023/12/15 05:40:26;;;;;;;21.20;12.20;;;;;;;0.29;100.00;101777.64;105183;1258;71644;-60
2023/12/15 05:42:54;;;;;;;17.30;11.30;;;;;;;0.29;100.00;101777.98;105124;1258;69148;-60
2023/12/15 05:45:22;;;;;;;20.90;12.20;;;;;;;0.26;100.00;101779.82;105134;1262;69252;-60
2023/12/15 05:47:51;;;;;;;52.10;26.80;;;;;;;0.24;100.00;101782.16;105159;1256;74320;-60
2023/12/15 05:50:19;;;;;;;25.30;14.80;;;;;;;0.24;100.00;101786.27;105188;1260;81388;-60
2023/12/15 05:52:48;;;;;;;24.70;14.50;;;;;;;0.23;100.00;101794.16;105144;1260;71331;-60
2023/12/15 05:55:16;;;;;;;23.00;14.10;;;;;;;0.22;100.00;101801.00;105096;1260;69136;-60
2023/12/15 05:57:44;;;;;;;27.70;14.60;;;;;;;0.20;100.00;101806.13;105154;1260;69189;-60
2023/12/15 06:00:13;;;;;;;22.20;13.90;;;;;;;0.18;100.00;101809.00;105185;1257;74510;-59
2023/12/15 06:02:42;;;;;;;26.30;16.20;;;;;;;0.17;100.00;101813.77;105213;1260;81359;-60
2023/12/15 06:05:11;;;;;;;21.60;13.90;;;;;;;0.18;100.00;101814.31;105177;1256;72884;-60
2023/12/15 06:07:40;;;;;;;26.90;16.40;;;;;;;0.18;100.00;101821.20;105113;1256;69198;-60
2023/12/15 06:10:08;;;;;;;25.70;15.50;;;;;;;0.20;100.00;101821.94;105182;1260;69212;-60
2023/12/15 06:12:37;;;;;;;28.70;16.20;;;;;;;0.22;100.00;101819.91;105224;1257;73547;-60
2023/12/15 06:15:08;;;;;;;26.50;15.80;;;;;;;0.23;100.00;101819.44;105197;1260;82587;-60
2023/12/15 06:17:36;;;;;;;29.90;17.70;;;;;;;0.26;100.00;101816.95;105136;1261;70275;-60
2023/12/15 06:20:07;;;;;;;27.80;16.60;;;;;;;0.29;100.00;101824.24;105137;1256;69405;-60
2023/12/15 06:22:35;;;;;;;26.90;15.60;;;;;;;0.30;100.00;101828.06;105167;1257;69176;-60
2023/12/15 06:25:04;;;;;;;24.50;14.90;;;;;;;0.30;100.00;101829.60;105120;1256;73954;-60
2023/12/15 06:27:32;;;;;;;23.10;14.00;;;;;;;0.27;100.00;101829.34;105206;1260;83167;-60
2023/12/15 06:30:01;;;;;;;23.40;13.60;;;;;;;0.23;100.00;101833.01;105192;1257;72129;-60
2023/12/15 06:32:30;;;;;;;24.00;13.40;;;;;;;0.18;100.00;101838.55;105162;1256;69190;-60
2023/12/15 06:34:58;;;;;;;21.50;12.60;;;;;;;0.14;100.00;101842.39;105139;1257;69617;-60
2023/12/15 06:37:27;;;;;;;21.90;13.00;;;;;;;0.09;100.00;101846.90;105184;1256;73680;-60
2023/12/15 06:39:55;;;;;;;21.80;12.60;;;;;;;0.05;100.00;101850.89;105170;1262;82563;-60
2023/12/15 06:42:23;;;;;;;22.00;13.00;;;;;;;0.01;100.00;101855.06;105214;1257;70171;-59
2023/12/15 06:44:52;;;;;;;20.10;12.40;;;;;;;-0.05;100.00;101858.86;105114;1262;69145;-60
2023/12/15 06:47:20;;;;;;;24.60;14.30;;;;;;;-0.08;100.00;101864.62;105150;1260;69641;-60
2023/12/15 06:49:48;;;;;;;32.90;13.60;;;;;;;-0.06;100.00;101874.11;105125;1256;74331;-60
2023/12/15 06:52:16;;;;;;;27.30;16.00;;;;;;;-0.06;100.00;101881.14;105102;1261;80653;-60
2023/12/15 06:54:44;;;;;;;34.90;18.40;;;;;;;-0.03;100.00;101886.05;105111;1256;71725;-60
2023/12/15 06:57:13;;;;;;;27.20;16.30;;;;;;;0.02;100.00;101890.67;105133;1257;69159;-60
2023/12/15 06:59:41;;;;;;;26.10;15.00;;;;;;;0.04;100.00;101892.11;105103;1260;69141;-60
2023/12/15 07:02:09;;;;;;;28.50;15.20;;;;;;;0.05;100.00;101890.07;105166;1256;74614;-60
2023/12/15 07:04:37;;;;;;;25.40;13.80;;;;;;;0.05;100.00;101893.84;105140;1262;81302;-60
2023/12/15 07:07:06;;;;;;;26.00;15.10;;;;;;;0.03;100.00;101900.52;105137;1256;71634;-60
2023/12/15 07:09:34;;;;;;;33.90;17.60;;;;;;;0.07;100.00;101903.20;105184;1257;69720;-60
2023/12/15 07:12:03;;;;;;;25.70;15.40;;;;;;;0.10;100.00;101904.31;105126;1257;69185;-60
2023/12/15 07:14:31;;;;;;;50.00;23.60;;;;;;;0.11;100.00;101906.77;105206;1262;73500;-60
2023/12/15 07:16:59;;;;;;;35.20;16.90;;;;;;;0.14;100.00;101908.22;105167;1260;82732;-60
2023/12/15 07:19:27;;;;;;;30.00;16.80;;;;;;;0.15;100.00;101916.17;105139;1257;71631;-60
2023/12/15 07:21:56;;;;;;;30.10;16.10;;;;;;;0.15;100.00;101917.89;105099;1261;69170;-60
2023/12/15 07:24:24;;;;;;;28.80;15.20;;;;;;;0.14;100.00;101925.41;105170;1257;69199;-60
2023/12/15 07:26:52;;;;;;;29.30;15.40;;;;;;;0.16;100.00;101934.75;105204;1256;73860;-60
2023/12/15 07:29:22;;;;;;;24.60;14.80;;;;;;;0.18;100.00;101934.13;105205;1256;81676;-60
2023/12/15 07:31:50;;;;;;;23.50;14.00;;;;;;;0.21;100.00;101936.79;105186;1261;71845;-60
2023/12/15 07:34:18;;;;;;;23.90;14.40;;;;;;;0.22;100.00;101936.13;105143;1256;69178;-60
2023/12/15 07:36:47;;;;;;;24.20;14.40;;;;;;;0.24;100.00;101940.66;105142;1262;69200;-60
2023/12/15 07:39:21;;;;;;;23.70;13.80;;;;;;;0.26;100.00;101945.19;105184;1260;74141;-60
2023/12/15 07:41:50;;;;;;;24.20;13.50;;;;;;;0.26;100.00;101950.52;105167;1256;81605;-60
2023/12/15 07:44:18;;;;;;;23.40;12.90;;;;;;;0.27;100.00;101951.92;105103;1262;71241;-60
2023/12/15 07:46:47;;;;;;;26.60;14.00;;;;;;;0.28;100.00;101958.82;105124;1257;69205;-60
2023/12/15 07:49:15;;;;;;;22.50;14.60;;;;;;;0.30;100.00;101965.42;105174;1260;69138;-60
2023/12/15 07:51:43;;;;;;;25.70;14.60;;;;;;;0.31;100.00;101965.30;105141;1256;74960;-60
2023/12/15 07:54:12;;;;;;;25.50;14.20;;;;;;;0.35;100.00;101968.84;105230;1260;81812;-60
2023/12/15 07:56:40;;;;;;;27.70;15.20;;;;;;;0.40;100.00;101970.02;105206;1261;71419;-60
2023/12/15 07:59:08;;;;;;;30.00;16.10;;;;;;;0.43;100.00;101970.46;105117;1257;69204;-60
2023/12/15 08:01:36;;;;;;;31.90;17.60;;;;;;;0.47;100.00;101968.86;105176;1260;69129;-60
2023/12/15 08:04:05;;;;;;;31.80;19.30;;;;;;;0.51;100.00;101970.36;105115;1256;75176;-60
2023/12/15 08:06:37;;;;;;;31.90;18.50;;;;;;;0.55;100.00;101981.66;105198;1262;80497;-59
2023/12/15 08:09:05;;;;;;;34.90;18.20;;;;;;;0.58;100.00;101983.99;105189;1262;71678;-60
2023/12/15 08:11:33;;;;;;;31.10;18.00;;;;;;;0.61;100.00;101989.56;105123;1257;69134;-60
2023/12/15 08:14:03;;;;;;;30.30;17.20;;;;;;;0.65;100.00;101989.86;105250;1260;69157;-60
2023/12/15 08:16:31;;;;;;;36.40;19.00;;;;;;;0.67;100.00;101996.98;105184;1257;72795;-60
2023/12/15 08:19:03;;;;;;;33.30;18.10;;;;;;;0.71;100.00;101999.33;105141;1261;81432;-60
2023/12/15 08:21:31;;;;;;;32.60;17.20;;;;;;;0.75;100.00;102011.83;105185;1262;72105;-60
2023/12/15 08:24:00;;;;;;;28.80;16.20;;;;;;;0.78;100.00;102016.55;105207;1261;69196;-60
2023/12/15 08:26:28;;;;;;;31.70;16.00;;;;;;;0.81;100.00;102017.68;105135;1260;69192;-60
2023/12/15 08:28:56;;;;;;;26.10;15.50;;;;;;;0.84;100.00;102019.66;105194;1257;74256;-60
2023/12/15 08:31:25;;;;;;;29.90;16.10;;;;;;;0.86;100.00;102023.84;105140;1261;81455;-60
2023/12/15 08:33:54;;;;;;;31.90;15.00;;;;;;;0.90;100.00;102025.67;105143;1261;70784;-60
2023/12/15 08:36:23;;;;;;;31.60;15.10;;;;;;;0.95;100.00;102022.38;105201;1258;69116;-60
2023/12/15 08:38:51;;;;;;;24.10;12.80;;;;;;;1.01;100.00;102022.89;105160;1261;69193;-60
2023/12/15 08:41:19;;;;;;;28.70;13.20;;;;;;;1.09;100.00;102031.20;105153;1256;73737;-60
2023/12/15 08:43:48;;;;;;;29.00;13.50;;;;;;;1.16;100.00;102031.92;105219;1262;81522;-60
2023/12/15 08:46:16;;;;;;;23.40;12.20;;;;;;;1.23;100.00;102033.67;105136;1256;72204;-60
2023/12/15 08:48:44;;;;;;;20.90;10.80;;;;;;;1.30;100.00;102032.83;105158;1258;69320;-60
2023/12/15 08:51:12;;;;;;;19.80;11.10;;;;;;;1.36;100.00;102037.98;105106;1261;69240;-60
2023/12/15 08:53:41;;;;;;;22.40;11.30;;;;;;;1.42;100.00;102038.14;105229;1257;74382;-60
2023/12/15 08:56:09;;;;;;;20.40;11.30;;;;;;;1.48;100.00;102039.67;105119;1262;81590;-60
2023/12/15 08:58:38;;;;;;;24.80;12.00;;;;;;;1.53;100.00;102038.61;105165;1257;72114;-60
2023/12/15 09:01:06;;;;;;;18.10;10.80;;;;;;;1.58;100.00;102041.15;105142;1257;69134;-60
2023/12/15 09:03:34;;;;;;;21.10;12.10;;;;;;;1.61;100.00;102038.81;105150;1257;69252;-60
2023/12/15 09:06:02;;;;;;;19.30;10.80;;;;;;;1.64;100.00;102042.50;105205;1256;74157;-60
2023/12/15 09:08:33;;;;;;;18.50;11.00;;;;;;;1.67;100.00;102047.08;104805;1266;81984;-60
2023/12/15 09:11:02;;;;;;;25.50;12.60;;;;;;;1.71;100.00;102049.59;104743;1263;72976;-60
2023/12/15 09:13:33;;;;;;;23.80;12.30;;;;;;;1.74;100.00;102051.55;104807;1263;69340;-59
2023/12/15 09:16:01;;;;;;;22.70;12.50;;;;;;;1.77;100.00;102050.77;104772;1262;69102;-60
2023/12/15 09:18:30;;;;;;;22.10;12.60;;;;;;;1.83;100.00;102054.19;104812;1263;73719;-60
2023/12/15 09:21:00;;;;;;;27.20;14.20;;;;;;;1.92;100.00;102060.79;104728;1262;82790;-60
2023/12/15 09:23:28;;;;;;;25.60;13.50;;;;;;;2.08;100.00;102064.46;104805;1262;73135;-60
2023/12/15 09:25:56;;;;;;;24.80;13.40;;;;;;;2.16;100.00;102063.63;104780;1262;69172;-60
2023/12/15 09:28:25;;;;;;;23.50;12.80;;;;;;;2.24;100.00;102068.30;105127;1257;69126;-60
2023/12/15 09:30:53;;;;;;;22.30;13.10;;;;;;;2.30;100.00;102071.20;105162;1257;72634;-60
2023/12/15 09:33:21;;;;;;;20.30;12.50;;;;;;;2.37;100.00;102067.41;105235;1257;82768;-60
2023/12/15 09:35:53;;;;;;;20.10;11.80;;;;;;;2.42;100.00;102067.00;105131;1256;72425;-60
2023/12/15 09:38:22;;;;;;;22.40;12.70;;;;;;;2.45;100.00;102069.84;105153;1260;69247;-60
2023/12/15 09:40:50;;;;;;;21.40;12.50;;;;;;;2.49;100.00;102069.73;105212;1257;69116;-60
2023/12/15 09:43:18;;;;;;;24.50;14.10;;;;;;;2.56;100.00;102067.49;105200;1256;73356;-60
2023/12/15 09:45:46;;;;;;;23.10;13.40;;;;;;;2.63;100.00;102068.35;105166;1257;81622;-60
2023/12/15 09:48:16;;;;;;;19.20;12.50;;;;;;;2.71;100.00;102065.40;105187;1262;71583;-60
2023/12/15 09:50:51;;;;;;;21.90;12.80;;;;;;;2.79;100.00;102061.09;105132;1260;69122;-60
2023/12/15 09:53:20;;;;;;;18.60;11.80;;;;;;;2.82;100.00;102062.72;105177;1261;69210;-60
2023/12/15 09:55:50;;;;;;;23.60;12.50;;;;;;;2.86;100.00;102063.48;105182;1260;73946;-60
2023/12/15 09:58:19;;;;;;;20.90;12.80;;;;;;;2.91;100.00;102058.06;105209;1262;81331;-60
2023/12/15 10:00:47;;;;;;;20.30;12.50;;;;;;;2.95;100.00;102057.80;105111;1262;72989;-59
2023/12/15 10:03:16;;;;;;;20.50;12.40;;;;;;;2.98;100.00;102056.83;105185;1258;69137;-60
2023/12/15 10:05:44;;;;;;;23.90;14.20;;;;;;;2.99;100.00;102051.66;105221;1262;69261;-60
2023/12/15 10:08:13;;;;;;;24.20;13.50;;;;;;;2.99;100.00;102052.00;105135;1257;74127;-60
2023/12/15 10:10:41;;;;;;;21.20;13.30;;;;;;;2.98;100.00;102055.27;105223;1260;81858;-60
2023/12/15 10:13:10;;;;;;;21.10;13.40;;;;;;;2.97;100.00;102054.56;105205;1257;71648;-60
2023/12/15 10:15:38;;;;;;;19.60;13.30;;;;;;;2.96;100.00;102050.73;105129;1263;69179;-60
2023/12/15 10:18:06;;;;;;;22.50;12.90;;;;;;;2.98;100.00;102053.20;105176;1262;69196;-60
2023/12/15 10:20:35;;;;;;;18.80;11.50;;;;;;;2.98;100.00;102051.48;105176;1257;73644;-59
2023/12/15 10:23:05;;;;;;;18.10;11.10;;;;;;;2.98;100.00;102052.34;105213;1260;81368;-60
2023/12/15 10:25:33;;;;;;;20.60;12.40;;;;;;;2.98;100.00;102051.98;105158;1260;71135;-60
2023/12/15 10:28:05;;;;;;;18.80;11.70;;;;;;;2.98;100.00;102050.61;105188;1261;69295;-60
2023/12/15 10:30:35;;;;;;;19.70;12.30;;;;;;;3.02;100.00;102051.22;105202;1262;69136;-60
2023/12/15 10:33:03;;;;;;;20.30;12.20;;;;;;;3.07;100.00;102049.92;105138;1262;73610;-60
2023/12/15 10:35:32;;;;;;;22.00;12.50;;;;;;;3.12;100.00;102048.98;105166;1260;82620;-60
2023/12/15 10:38:01;;;;;;;20.30;12.50;;;;;;;3.20;100.00;102055.55;105117;1263;72926;-60
2023/12/15 10:40:29;;;;;;;30.00;15.10;;;;;;;3.28;100.00;102060.04;105157;1256;69189;-60
2023/12/15 10:42:58;;;;;;;28.80;15.80;;;;;;;3.33;100.00;102065.31;105173;1262;69170;-60
2023/12/15 10:45:28;;;;;;;18.90;11.90;;;;;;;3.37;100.00;102072.82;105200;1258;75454;-60
2023/12/15 10:47:58;;;;;;;17.50;11.50;;;;;;;3.42;100.00;102076.19;105157;1262;82714;-60
2023/12/15 10:50:29;;;;;;;18.00;11.30;;;;;;;3.45;100.00;102090.77;105163;1257;71926;-60
2023/12/15 10:52:57;;;;;;;18.10;11.60;;;;;;;3.49;100.00;102103.81;105143;1262;69201;-60
2023/12/15 10:55:26;;;;;;;16.90;11.30;;;;;;;3.53;100.00;102108.91;104951;1261;314749;-60
2023/12/15 10:57:58;;;;;;;18.90;12.50;;;;;;;3.58;100.00;102109.87;105214;1260;75877;-60
2023/12/15 11:00:31;;;;;;;18.30;11.10;;;;;;;3.64;100.00;102110.65;105176;1263;82082;-59
2023/12/15 11:03:00;;;;;;;17.70;11.40;;;;;;;3.68;100.00;102114.20;105228;1256;70840;-60
2023/12/15 11:05:32;;;;;;;18.50;11.80;;;;;;;3.72;100.00;102115.99;105208;1260;69735;-60